Aérodrome :
LOGIN :

S'inscrire | Disclaimer

   EN    FR    IT 

 










Légende :    VFR   VFR Marginal   IFR   IFR Intensif   IFR Très Intensif
Visi : 
Plafond : 
>= 8 km
>= 3000ft
5 à 8 km
1000 à 3000 ft
1500m à 5 km
500 à 1000 ft
800 à 1500m
200 à 500 ft
< 800m
< 200 ft
Symboles :   Orages  Brouillard  Fortes neiges  Fortes précipitations  Vent > 20 kt
SIGMETs :   Divers  Orages  Givrage  Turbulence  Onde Orograph.  Cendres Volcan.






- Altitude de l'aérodrome : 25 ft
- Code IATA : QCY


EGXC - RAF Coningsby

DERNIER METAR :
  • 260150Z 17010KT 1800 -DZ OVC003 05/05 Q1011 RMK YLO2

METARs EXPIRÉS :
  • 260050Z 18010KT 2500 -DZ OVC003 05/05 Q1012 RMK YLO2
  • 252350Z 18010KT 2500 -DZ OVC003 05/05 Q1013 RMK YLO2

TAF TAF EGXC
Valide du 26 à 03h jusqu'au 26 à 21h UTC


260151Z 2603/2621 18010KT 4000 BR BKN007
TEMPO 2603/2609 3000 -DZ BKN005
PROB40
TEMPO 2603/2606 2000 BKN004
BECMG 2608/2611 9999 NSW BKN030
TEMPO 2613/2617 18015G25KT 6000 RA BKN012
PROB30
TEMPO 2617/2619 SCT012



MET'MAP, la Météo Aéronautique d'un coup d'oeil ! - Copyright ORBIFLY Décembre 2007 - Disclaimer

ORBIFLY MET'MAP TEAM :

Programmation & Développement : Alexandra Zaïnal
Sur une idée originale de : Baudouin d'Aumeries
Assistance à la programmation : Marc-Olivier Méhu
Soutien technique & logistique : Manuel Goepfert

Contact : metmap@orbifly.com




SOURCES & CREDITS :

   NOAA